sensor_id;sensor_type;location;lat;lon;timestamp;temperature;humidity
33803;DHT22;20110;53.120;5.786;2022-12-18T00:01:23;-4.70;99.90
33803;DHT22;20110;53.120;5.786;2022-12-18T00:03:59;-4.60;99.90
33803;DHT22;20110;53.120;5.786;2022-12-18T00:06:28;-4.70;99.90
33803;DHT22;20110;53.120;5.786;2022-12-18T00:08:56;-4.70;99.90
33803;DHT22;20110;53.120;5.786;2022-12-18T00:11:26;-4.70;99.90
33803;DHT22;20110;53.120;5.786;2022-12-18T00:13:55;-4.70;99.90
33803;DHT22;20110;53.120;5.786;2022-12-18T00:16:24;-4.80;99.90
33803;DHT22;20110;53.120;5.786;2022-12-18T00:18:53;-4.80;99.90
33803;DHT22;20110;53.120;5.786;2022-12-18T00:21:20;-4.80;99.90
33803;DHT22;20110;53.120;5.786;2022-12-18T00:23:49;-4.80;99.90
33803;DHT22;20110;53.120;5.786;2022-12-18T00:26:20;-4.80;99.90
33803;DHT22;20110;53.120;5.786;2022-12-18T00:28:48;-4.90;99.90
33803;DHT22;20110;53.120;5.786;2022-12-18T00:31:17;-4.90;99.90
33803;DHT22;20110;53.120;5.786;2022-12-18T00:33:45;-4.90;99.90
33803;DHT22;20110;53.120;5.786;2022-12-18T00:36:13;-4.90;99.90
33803;DHT22;20110;53.120;5.786;2022-12-18T00:38:41;-4.80;99.90
33803;DHT22;20110;53.120;5.786;2022-12-18T00:41:09;-4.90;99.90
33803;DHT22;20110;53.120;5.786;2022-12-18T00:43:36;-4.90;99.90
33803;DHT22;20110;53.120;5.786;2022-12-18T00:46:03;-4.90;99.90
33803;DHT22;20110;53.120;5.786;2022-12-18T00:48:29;-4.80;99.90
33803;DHT22;20110;53.120;5.786;2022-12-18T00:50:55;-4.90;99.90
33803;DHT22;20110;53.120;5.786;2022-12-18T00:53:21;-4.90;99.90
33803;DHT22;20110;53.120;5.786;2022-12-18T00:55:47;-4.90;99.90
33803;DHT22;20110;53.120;5.786;2022-12-18T00:58:14;-4.90;99.90
33803;DHT22;20110;53.120;5.786;2022-12-18T01:00:41;-4.90;99.90
33803;DHT22;20110;53.120;5.786;2022-12-18T01:03:08;-4.90;99.90
33803;DHT22;20110;53.120;5.786;2022-12-18T01:05:39;-4.90;99.90
33803;DHT22;20110;53.120;5.786;2022-12-18T01:08:06;-4.90;99.90
33803;DHT22;20110;53.120;5.786;2022-12-18T01:10:31;-4.90;99.90
33803;DHT22;20110;53.120;5.786;2022-12-18T01:12:57;-5.00;99.90
33803;DHT22;20110;53.120;5.786;2022-12-18T01:15:23;-5.10;99.90
33803;DHT22;20110;53.120;5.786;2022-12-18T01:17:49;-5.00;99.90
33803;DHT22;20110;53.120;5.786;2022-12-18T01:20:17;-5.00;99.90
33803;DHT22;20110;53.120;5.786;2022-12-18T01:22:43;-5.00;99.90
33803;DHT22;20110;53.120;5.786;2022-12-18T01:25:09;-5.10;99.90
33803;DHT22;20110;53.120;5.786;2022-12-18T01:27:35;-5.10;99.90
33803;DHT22;20110;53.120;5.786;2022-12-18T01:30:01;-5.00;99.90
33803;DHT22;20110;53.120;5.786;2022-12-18T01:32:30;-5.10;99.90
33803;DHT22;20110;53.120;5.786;2022-12-18T01:34:56;-5.10;99.90
33803;DHT22;20110;53.120;5.786;2022-12-18T01:37:22;-5.20;99.90
33803;DHT22;20110;53.120;5.786;2022-12-18T01:39:48;-5.20;99.90
33803;DHT22;20110;53.120;5.786;2022-12-18T01:42:16;-5.10;99.90
33803;DHT22;20110;53.120;5.786;2022-12-18T01:47:42;-5.10;99.90
33803;DHT22;20110;53.120;5.786;2022-12-18T01:50:31;-5.20;99.90
33803;DHT22;20110;53.120;5.786;2022-12-18T01:53:17;-5.20;99.90
33803;DHT22;20110;53.120;5.786;2022-12-18T01:55:55;-5.30;99.90
33803;DHT22;20110;53.120;5.786;2022-12-18T02:01:25;-5.30;99.90
33803;DHT22;20110;53.120;5.786;2022-12-18T02:03:52;-5.30;99.90
33803;DHT22;20110;53.120;5.786;2022-12-18T02:06:29;-5.30;99.90
33803;DHT22;20110;53.120;5.786;2022-12-18T02:09:18;-5.40;99.90
33803;DHT22;20110;53.120;5.786;2022-12-18T02:12:12;-5.50;99.90
33803;DHT22;20110;53.120;5.786;2022-12-18T02:29:02;-5.70;99.90
33803;DHT22;20110;53.120;5.786;2022-12-18T02:31:36;-5.70;99.90
33803;DHT22;20110;53.120;5.786;2022-12-18T02:34:08;-5.70;99.90
33803;DHT22;20110;53.120;5.786;2022-12-18T02:36:38;-5.60;99.90
33803;DHT22;20110;53.120;5.786;2022-12-18T02:39:07;-5.60;99.90
33803;DHT22;20110;53.120;5.786;2022-12-18T02:41:37;-5.70;99.90
33803;DHT22;20110;53.120;5.786;2022-12-18T02:44:11;-5.90;99.90
33803;DHT22;20110;53.120;5.786;2022-12-18T02:46:42;-6.10;99.90
33803;DHT22;20110;53.120;5.786;2022-12-18T02:51:48;-5.90;99.90
33803;DHT22;20110;53.120;5.786;2022-12-18T02:54:21;-6.00;99.90
33803;DHT22;20110;53.120;5.786;2022-12-18T03:00:12;-6.10;99.90
33803;DHT22;20110;53.120;5.786;2022-12-18T03:02:59;-6.20;99.90
33803;DHT22;20110;53.120;5.786;2022-12-18T03:08:23;-6.20;99.90
33803;DHT22;20110;53.120;5.786;2022-12-18T03:11:03;-6.10;99.90
33803;DHT22;20110;53.120;5.786;2022-12-18T03:13:42;-6.20;99.90
33803;DHT22;20110;53.120;5.786;2022-12-18T03:16:14;-6.30;99.90
33803;DHT22;20110;53.120;5.786;2022-12-18T03:18:49;-6.30;99.90
33803;DHT22;20110;53.120;5.786;2022-12-18T03:21:25;-6.30;99.90
33803;DHT22;20110;53.120;5.786;2022-12-18T03:23:55;-6.30;99.90
33803;DHT22;20110;53.120;5.786;2022-12-18T03:26:24;-6.30;99.90
33803;DHT22;20110;53.120;5.786;2022-12-18T03:29:02;-6.30;99.90
33803;DHT22;20110;53.120;5.786;2022-12-18T03:31:33;-6.30;99.90
33803;DHT22;20110;53.120;5.786;2022-12-18T03:34:02;-6.30;99.90
33803;DHT22;20110;53.120;5.786;2022-12-18T03:36:32;-6.40;99.90
33803;DHT22;20110;53.120;5.786;2022-12-18T03:38:58;-6.40;99.90
33803;DHT22;20110;53.120;5.786;2022-12-18T03:41:51;-6.40;99.90
33803;DHT22;20110;53.120;5.786;2022-12-18T03:44:32;-6.30;99.90
33803;DHT22;20110;53.120;5.786;2022-12-18T03:55:16;-6.40;99.90
33803;DHT22;20110;53.120;5.786;2022-12-18T03:57:45;-6.40;99.90
33803;DHT22;20110;53.120;5.786;2022-12-18T04:00:16;-6.40;99.90
33803;DHT22;20110;53.120;5.786;2022-12-18T04:02:47;-6.30;99.90
33803;DHT22;20110;53.120;5.786;2022-12-18T04:05:17;-6.30;99.90
33803;DHT22;20110;53.120;5.786;2022-12-18T04:07:47;-6.60;99.90
33803;DHT22;20110;53.120;5.786;2022-12-18T04:10:15;-6.80;99.90
33803;DHT22;20110;53.120;5.786;2022-12-18T04:12:42;-6.70;99.90
33803;DHT22;20110;53.120;5.786;2022-12-18T04:15:10;-6.80;99.90
33803;DHT22;20110;53.120;5.786;2022-12-18T04:17:37;-7.00;99.90
33803;DHT22;20110;53.120;5.786;2022-12-18T04:20:04;-7.10;99.90
33803;DHT22;20110;53.120;5.786;2022-12-18T04:22:30;-7.00;99.90
33803;DHT22;20110;53.120;5.786;2022-12-18T04:24:55;-7.00;99.90
33803;DHT22;20110;53.120;5.786;2022-12-18T04:27:22;-6.90;99.90
33803;DHT22;20110;53.120;5.786;2022-12-18T04:29:47;-6.80;99.90
33803;DHT22;20110;53.120;5.786;2022-12-18T04:32:13;-6.80;99.90
33803;DHT22;20110;53.120;5.786;2022-12-18T04:34:39;-6.90;99.90
33803;DHT22;20110;53.120;5.786;2022-12-18T04:37:05;-6.90;99.90
33803;DHT22;20110;53.120;5.786;2022-12-18T04:39:30;-6.90;99.90
33803;DHT22;20110;53.120;5.786;2022-12-18T04:41:56;-6.90;99.90
33803;DHT22;20110;53.120;5.786;2022-12-18T04:44:22;-6.90;99.90
33803;DHT22;20110;53.120;5.786;2022-12-18T04:46:48;-6.80;99.90
33803;DHT22;20110;53.120;5.786;2022-12-18T04:49:14;-6.90;99.90
33803;DHT22;20110;53.120;5.786;2022-12-18T04:51:39;-7.00;99.90
33803;DHT22;20110;53.120;5.786;2022-12-18T04:54:05;-7.10;99.90
33803;DHT22;20110;53.120;5.786;2022-12-18T04:56:31;-7.10;99.90
33803;DHT22;20110;53.120;5.786;2022-12-18T04:58:57;-7.00;99.90
33803;DHT22;20110;53.120;5.786;2022-12-18T05:01:23;-7.00;99.90
33803;DHT22;20110;53.120;5.786;2022-12-18T05:03:51;-7.10;99.90
33803;DHT22;20110;53.120;5.786;2022-12-18T05:06:17;-7.20;99.90
33803;DHT22;20110;53.120;5.786;2022-12-18T05:08:43;-7.10;99.90
33803;DHT22;20110;53.120;5.786;2022-12-18T05:11:11;-7.00;99.90
33803;DHT22;20110;53.120;5.786;2022-12-18T05:13:41;-7.00;99.90
33803;DHT22;20110;53.120;5.786;2022-12-18T05:16:11;-7.00;99.90
33803;DHT22;20110;53.120;5.786;2022-12-18T05:18:38;-7.00;99.90
33803;DHT22;20110;53.120;5.786;2022-12-18T05:21:04;-7.00;99.90
33803;DHT22;20110;53.120;5.786;2022-12-18T05:23:31;-7.10;99.90
33803;DHT22;20110;53.120;5.786;2022-12-18T05:26:01;-7.10;99.90
33803;DHT22;20110;53.120;5.786;2022-12-18T05:28:31;-7.00;99.90
33803;DHT22;20110;53.120;5.786;2022-12-18T05:31:00;-7.00;99.90
33803;DHT22;20110;53.120;5.786;2022-12-18T05:33:30;-7.10;99.90
33803;DHT22;20110;53.120;5.786;2022-12-18T05:35:59;-7.30;99.90
33803;DHT22;20110;53.120;5.786;2022-12-18T05:38:27;-7.30;99.90
33803;DHT22;20110;53.120;5.786;2022-12-18T05:40:55;-7.30;99.90
33803;DHT22;20110;53.120;5.786;2022-12-18T05:43:22;-7.40;99.90
33803;DHT22;20110;53.120;5.786;2022-12-18T05:45:50;-7.60;99.90
33803;DHT22;20110;53.120;5.786;2022-12-18T05:48:17;-7.60;99.90
33803;DHT22;20110;53.120;5.786;2022-12-18T05:50:44;-7.60;99.90
33803;DHT22;20110;53.120;5.786;2022-12-18T05:53:11;-7.70;99.90
33803;DHT22;20110;53.120;5.786;2022-12-18T05:55:40;-7.60;99.90
33803;DHT22;20110;53.120;5.786;2022-12-18T05:58:08;-7.50;99.90
33803;DHT22;20110;53.120;5.786;2022-12-18T06:00:37;-7.50;99.90
33803;DHT22;20110;53.120;5.786;2022-12-18T06:03:06;-7.50;99.90
33803;DHT22;20110;53.120;5.786;2022-12-18T06:05:40;-7.50;99.90
33803;DHT22;20110;53.120;5.786;2022-12-18T06:08:08;-7.60;99.90
33803;DHT22;20110;53.120;5.786;2022-12-18T06:10:34;-7.80;99.90
33803;DHT22;20110;53.120;5.786;2022-12-18T06:13:00;-7.70;99.90
33803;DHT22;20110;53.120;5.786;2022-12-18T06:15:26;-7.60;99.90
33803;DHT22;20110;53.120;5.786;2022-12-18T06:17:52;-7.70;99.90
33803;DHT22;20110;53.120;5.786;2022-12-18T06:20:18;-7.70;99.90
33803;DHT22;20110;53.120;5.786;2022-12-18T06:22:44;-7.60;99.90
33803;DHT22;20110;53.120;5.786;2022-12-18T06:25:10;-7.70;99.90
33803;DHT22;20110;53.120;5.786;2022-12-18T06:27:36;-7.70;99.90
33803;DHT22;20110;53.120;5.786;2022-12-18T06:30:02;-7.90;99.90
33803;DHT22;20110;53.120;5.786;2022-12-18T06:32:28;-8.10;99.90
33803;DHT22;20110;53.120;5.786;2022-12-18T06:34:54;-8.00;99.90
33803;DHT22;20110;53.120;5.786;2022-12-18T06:37:21;-7.90;99.90
33803;DHT22;20110;53.120;5.786;2022-12-18T06:39:50;-7.80;99.90
33803;DHT22;20110;53.120;5.786;2022-12-18T06:42:16;-7.80;99.90
33803;DHT22;20110;53.120;5.786;2022-12-18T06:44:41;-7.70;99.90
33803;DHT22;20110;53.120;5.786;2022-12-18T06:47:07;-7.60;99.90
33803;DHT22;20110;53.120;5.786;2022-12-18T06:49:33;-7.60;99.90
33803;DHT22;20110;53.120;5.786;2022-12-18T06:51:58;-7.60;99.90
33803;DHT22;20110;53.120;5.786;2022-12-18T06:54:24;-7.70;99.90
33803;DHT22;20110;53.120;5.786;2022-12-18T06:56:50;-7.80;99.90
33803;DHT22;20110;53.120;5.786;2022-12-18T06:59:16;-7.80;99.90
33803;DHT22;20110;53.120;5.786;2022-12-18T07:01:42;-7.90;99.90
33803;DHT22;20110;53.120;5.786;2022-12-18T07:04:07;-8.20;99.90
33803;DHT22;20110;53.120;5.786;2022-12-18T07:06:33;-8.30;99.90
33803;DHT22;20110;53.120;5.786;2022-12-18T07:08:59;-8.30;99.90
33803;DHT22;20110;53.120;5.786;2022-12-18T07:11:25;-8.30;99.90
33803;DHT22;20110;53.120;5.786;2022-12-18T07:13:52;-8.40;99.90
33803;DHT22;20110;53.120;5.786;2022-12-18T07:16:19;-8.40;99.90
33803;DHT22;20110;53.120;5.786;2022-12-18T07:18:46;-8.40;99.90
33803;DHT22;20110;53.120;5.786;2022-12-18T07:21:15;-8.30;99.90
33803;DHT22;20110;53.120;5.786;2022-12-18T07:23:41;-8.30;99.90
33803;DHT22;20110;53.120;5.786;2022-12-18T07:26:10;-8.20;99.90
33803;DHT22;20110;53.120;5.786;2022-12-18T07:28:39;-8.10;99.90
33803;DHT22;20110;53.120;5.786;2022-12-18T07:31:11;-8.10;99.90
33803;DHT22;20110;53.120;5.786;2022-12-18T07:33:38;-8.00;99.90
33803;DHT22;20110;53.120;5.786;2022-12-18T07:36:06;-7.90;99.90
33803;DHT22;20110;53.120;5.786;2022-12-18T07:38:33;-7.90;99.90
33803;DHT22;20110;53.120;5.786;2022-12-18T07:41:09;-7.70;99.90
33803;DHT22;20110;53.120;5.786;2022-12-18T07:43:37;-7.90;99.90
33803;DHT22;20110;53.120;5.786;2022-12-18T07:46:05;-8.30;99.90
33803;DHT22;20110;53.120;5.786;2022-12-18T07:48:31;-8.40;99.90
33803;DHT22;20110;53.120;5.786;2022-12-18T07:51:06;-8.30;99.90
33803;DHT22;20110;53.120;5.786;2022-12-18T07:53:34;-8.10;99.90
33803;DHT22;20110;53.120;5.786;2022-12-18T07:56:03;-8.30;99.90
33803;DHT22;20110;53.120;5.786;2022-12-18T07:58:34;-8.20;99.90
33803;DHT22;20110;53.120;5.786;2022-12-18T08:01:08;-8.30;99.90
33803;DHT22;20110;53.120;5.786;2022-12-18T08:03:36;-8.20;99.90
33803;DHT22;20110;53.120;5.786;2022-12-18T08:06:05;-8.30;99.90
33803;DHT22;20110;53.120;5.786;2022-12-18T08:08:33;-8.50;99.90
33803;DHT22;20110;53.120;5.786;2022-12-18T08:11:01;-8.60;99.90
33803;DHT22;20110;53.120;5.786;2022-12-18T08:13:27;-8.00;99.90
33803;DHT22;20110;53.120;5.786;2022-12-18T08:16:01;-7.60;99.90
33803;DHT22;20110;53.120;5.786;2022-12-18T08:18:29;-7.40;99.90
33803;DHT22;20110;53.120;5.786;2022-12-18T08:23:41;-7.40;99.90
33803;DHT22;20110;53.120;5.786;2022-12-18T08:26:07;-7.20;99.90
33803;DHT22;20110;53.120;5.786;2022-12-18T08:28:33;-7.40;99.90
33803;DHT22;20110;53.120;5.786;2022-12-18T08:30:59;-7.60;99.90
33803;DHT22;20110;53.120;5.786;2022-12-18T08:33:26;-7.30;99.90
33803;DHT22;20110;53.120;5.786;2022-12-18T08:35:52;-7.50;99.90
33803;DHT22;20110;53.120;5.786;2022-12-18T08:38:18;-7.30;99.90
33803;DHT22;20110;53.120;5.786;2022-12-18T08:40:44;-7.20;99.90
33803;DHT22;20110;53.120;5.786;2022-12-18T08:43:10;-7.20;99.90
33803;DHT22;20110;53.120;5.786;2022-12-18T08:45:55;-7.20;99.90
33803;DHT22;20110;53.120;5.786;2022-12-18T08:48:21;-7.30;99.90
33803;DHT22;20110;53.120;5.786;2022-12-18T08:50:55;-7.20;99.90
33803;DHT22;20110;53.120;5.786;2022-12-18T08:53:21;-6.90;99.90
33803;DHT22;20110;53.120;5.786;2022-12-18T08:55:47;-6.80;99.90
33803;DHT22;20110;53.120;5.786;2022-12-18T08:58:13;-6.60;99.90
33803;DHT22;20110;53.120;5.786;2022-12-18T09:00:39;-6.70;99.90
33803;DHT22;20110;53.120;5.786;2022-12-18T09:03:05;-6.40;99.90
33803;DHT22;20110;53.120;5.786;2022-12-18T09:05:30;-6.20;99.90
33803;DHT22;20110;53.120;5.786;2022-12-18T09:07:56;-6.00;99.90
33803;DHT22;20110;53.120;5.786;2022-12-18T09:10:22;-5.90;99.90
33803;DHT22;20110;53.120;5.786;2022-12-18T09:12:48;-6.20;99.90
33803;DHT22;20110;53.120;5.786;2022-12-18T09:15:14;-6.10;99.90
33803;DHT22;20110;53.120;5.786;2022-12-18T09:17:39;-6.00;99.90
33803;DHT22;20110;53.120;5.786;2022-12-18T09:20:05;-6.20;99.90
33803;DHT22;20110;53.120;5.786;2022-12-18T09:22:32;-6.30;99.90
33803;DHT22;20110;53.120;5.786;2022-12-18T09:24:58;-5.90;99.90
33803;DHT22;20110;53.120;5.786;2022-12-18T09:27:23;-6.30;99.90
33803;DHT22;20110;53.120;5.786;2022-12-18T09:29:49;-6.40;99.90
33803;DHT22;20110;53.120;5.786;2022-12-18T09:32:15;-5.40;99.90
33803;DHT22;20110;53.120;5.786;2022-12-18T09:34:41;-5.00;99.90
33803;DHT22;20110;53.120;5.786;2022-12-18T09:37:07;-4.70;99.90
33803;DHT22;20110;53.120;5.786;2022-12-18T09:39:35;-4.50;99.90
33803;DHT22;20110;53.120;5.786;2022-12-18T09:42:01;-4.40;99.90
33803;DHT22;20110;53.120;5.786;2022-12-18T09:44:39;-4.40;99.90
33803;DHT22;20110;53.120;5.786;2022-12-18T09:47:23;-4.20;99.90
33803;DHT22;20110;53.120;5.786;2022-12-18T09:49:56;-4.20;99.90
33803;DHT22;20110;53.120;5.786;2022-12-18T09:52:43;-4.00;99.90
33803;DHT22;20110;53.120;5.786;2022-12-18T09:57:56;-3.80;99.90
33803;DHT22;20110;53.120;5.786;2022-12-18T10:00:27;-3.80;99.90
33803;DHT22;20110;53.120;5.786;2022-12-18T10:02:59;-3.90;99.90
33803;DHT22;20110;53.120;5.786;2022-12-18T10:14:00;-5.20;99.90
33803;DHT22;20110;53.120;5.786;2022-12-18T10:19:38;-5.20;99.90
33803;DHT22;20110;53.120;5.786;2022-12-18T10:27:45;-5.60;99.90
33803;DHT22;20110;53.120;5.786;2022-12-18T10:30:16;-5.30;99.90
33803;DHT22;20110;53.120;5.786;2022-12-18T10:32:45;-5.20;99.90
33803;DHT22;20110;53.120;5.786;2022-12-18T10:35:20;-4.80;99.90
33803;DHT22;20110;53.120;5.786;2022-12-18T10:43:23;-3.70;99.90
33803;DHT22;20110;53.120;5.786;2022-12-18T10:48:27;-3.90;99.90
33803;DHT22;20110;53.120;5.786;2022-12-18T10:50:54;-3.80;99.90
33803;DHT22;20110;53.120;5.786;2022-12-18T10:53:26;-4.10;99.90
33803;DHT22;20110;53.120;5.786;2022-12-18T10:55:58;-4.40;99.90
33803;DHT22;20110;53.120;5.786;2022-12-18T10:58:31;-4.90;99.90
33803;DHT22;20110;53.120;5.786;2022-12-18T11:01:07;-5.20;99.90
33803;DHT22;20110;53.120;5.786;2022-12-18T11:06:19;-5.40;99.90
33803;DHT22;20110;53.120;5.786;2022-12-18T11:12:00;-4.50;99.90
33803;DHT22;20110;53.120;5.786;2022-12-18T11:14:43;-4.50;99.90
33803;DHT22;20110;53.120;5.786;2022-12-18T11:17:33;-4.20;99.90
33803;DHT22;20110;53.120;5.786;2022-12-18T11:20:06;-4.50;99.90
33803;DHT22;20110;53.120;5.786;2022-12-18T11:22:54;-4.40;99.90
33803;DHT22;20110;53.120;5.786;2022-12-18T11:25:22;-4.20;99.90
33803;DHT22;20110;53.120;5.786;2022-12-18T11:28:02;-3.80;99.90
33803;DHT22;20110;53.120;5.786;2022-12-18T11:30:35;-3.70;99.90
33803;DHT22;20110;53.120;5.786;2022-12-18T11:33:12;-3.40;99.90
33803;DHT22;20110;53.120;5.786;2022-12-18T11:36:06;-3.40;99.90
33803;DHT22;20110;53.120;5.786;2022-12-18T11:38:36;-3.60;99.90
33803;DHT22;20110;53.120;5.786;2022-12-18T11:41:30;-3.80;99.90
33803;DHT22;20110;53.120;5.786;2022-12-18T11:44:28;-3.90;99.90
33803;DHT22;20110;53.120;5.786;2022-12-18T11:47:31;-4.10;99.90
33803;DHT22;20110;53.120;5.786;2022-12-18T11:50:02;-3.60;99.90
33803;DHT22;20110;53.120;5.786;2022-12-18T11:52:37;-3.60;99.90
33803;DHT22;20110;53.120;5.786;2022-12-18T11:55:12;-3.50;99.90
33803;DHT22;20110;53.120;5.786;2022-12-18T12:01:33;-4.00;99.90
33803;DHT22;20110;53.120;5.786;2022-12-18T12:03:59;-4.20;99.90
33803;DHT22;20110;53.120;5.786;2022-12-18T12:09:49;-4.30;99.90
33803;DHT22;20110;53.120;5.786;2022-12-18T12:18:51;-3.80;99.90
33803;DHT22;20110;53.120;5.786;2022-12-18T12:25:02;-3.30;99.90
33803;DHT22;20110;53.120;5.786;2022-12-18T12:27:42;-2.90;99.90
33803;DHT22;20110;53.120;5.786;2022-12-18T12:31:05;-3.00;99.90
33803;DHT22;20110;53.120;5.786;2022-12-18T12:39:42;-3.40;99.90
33803;DHT22;20110;53.120;5.786;2022-12-18T12:42:24;-3.50;99.90
33803;DHT22;20110;53.120;5.786;2022-12-18T12:45:21;-3.30;99.90
33803;DHT22;20110;53.120;5.786;2022-12-18T12:47:54;-3.40;99.90
33803;DHT22;20110;53.120;5.786;2022-12-18T12:50:23;-3.40;99.90
33803;DHT22;20110;53.120;5.786;2022-12-18T12:52:55;-3.70;99.90
33803;DHT22;20110;53.120;5.786;2022-12-18T12:55:24;-4.00;99.90
33803;DHT22;20110;53.120;5.786;2022-12-18T13:00:56;-3.60;99.90
33803;DHT22;20110;53.120;5.786;2022-12-18T13:03:51;-3.90;99.90
33803;DHT22;20110;53.120;5.786;2022-12-18T13:09:31;-3.80;99.90
33803;DHT22;20110;53.120;5.786;2022-12-18T13:12:09;-3.60;99.90
33803;DHT22;20110;53.120;5.786;2022-12-18T13:15:12;-3.30;99.90
33803;DHT22;20110;53.120;5.786;2022-12-18T13:17:46;-3.00;99.90
33803;DHT22;20110;53.120;5.786;2022-12-18T13:20:14;-2.90;99.90
33803;DHT22;20110;53.120;5.786;2022-12-18T13:22:43;-2.80;99.90
33803;DHT22;20110;53.120;5.786;2022-12-18T13:25:38;-2.60;99.90
33803;DHT22;20110;53.120;5.786;2022-12-18T13:28:07;-2.50;99.90
33803;DHT22;20110;53.120;5.786;2022-12-18T13:41:01;-2.30;99.90
33803;DHT22;20110;53.120;5.786;2022-12-18T13:43:41;-2.30;99.90
33803;DHT22;20110;53.120;5.786;2022-12-18T13:46:26;-2.30;99.90
33803;DHT22;20110;53.120;5.786;2022-12-18T13:51:44;-2.30;99.90
33803;DHT22;20110;53.120;5.786;2022-12-18T13:54:22;-2.30;99.90
33803;DHT22;20110;53.120;5.786;2022-12-18T13:56:50;-2.30;99.90
33803;DHT22;20110;53.120;5.786;2022-12-18T13:59:18;-2.40;99.90
33803;DHT22;20110;53.120;5.786;2022-12-18T14:02:27;-2.40;99.90
33803;DHT22;20110;53.120;5.786;2022-12-18T14:04:52;-2.40;99.90
33803;DHT22;20110;53.120;5.786;2022-12-18T14:07:28;-2.40;99.90
33803;DHT22;20110;53.120;5.786;2022-12-18T14:09:58;-2.40;99.90
33803;DHT22;20110;53.120;5.786;2022-12-18T14:12:28;-2.40;99.90
33803;DHT22;20110;53.120;5.786;2022-12-18T14:15:41;-2.50;99.90
33803;DHT22;20110;53.120;5.786;2022-12-18T14:18:29;-2.50;99.90
33803;DHT22;20110;53.120;5.786;2022-12-18T14:21:00;-2.60;99.90
33803;DHT22;20110;53.120;5.786;2022-12-18T14:23:38;-2.60;99.90
33803;DHT22;20110;53.120;5.786;2022-12-18T14:26:27;-2.60;99.90
33803;DHT22;20110;53.120;5.786;2022-12-18T14:29:00;-2.70;99.90
33803;DHT22;20110;53.120;5.786;2022-12-18T14:31:42;-2.70;99.90
33803;DHT22;20110;53.120;5.786;2022-12-18T14:34:17;-2.80;99.90
33803;DHT22;20110;53.120;5.786;2022-12-18T14:36:53;-2.70;99.90
33803;DHT22;20110;53.120;5.786;2022-12-18T14:39:21;-2.70;99.90
33803;DHT22;20110;53.120;5.786;2022-12-18T14:41:49;-2.70;99.90
33803;DHT22;20110;53.120;5.786;2022-12-18T14:44:15;-2.70;99.90
33803;DHT22;20110;53.120;5.786;2022-12-18T14:46:46;-2.80;99.90
33803;DHT22;20110;53.120;5.786;2022-12-18T14:49:33;-2.80;99.90
33803;DHT22;20110;53.120;5.786;2022-12-18T14:52:05;-2.80;99.90
33803;DHT22;20110;53.120;5.786;2022-12-18T14:54:39;-2.80;99.90
33803;DHT22;20110;53.120;5.786;2022-12-18T14:59:43;-2.80;99.90
33803;DHT22;20110;53.120;5.786;2022-12-18T15:02:18;-3.00;99.90
33803;DHT22;20110;53.120;5.786;2022-12-18T15:04:47;-3.40;99.90
33803;DHT22;20110;53.120;5.786;2022-12-18T15:07:24;-3.50;99.90
33803;DHT22;20110;53.120;5.786;2022-12-18T15:10:13;-3.80;99.90
33803;DHT22;20110;53.120;5.786;2022-12-18T15:18:16;-3.60;99.90
33803;DHT22;20110;53.120;5.786;2022-12-18T15:20:53;-3.50;99.90
33803;DHT22;20110;53.120;5.786;2022-12-18T15:26:12;-3.50;99.90
33803;DHT22;20110;53.120;5.786;2022-12-18T15:28:52;-3.50;99.90
33803;DHT22;20110;53.120;5.786;2022-12-18T15:31:38;-3.40;99.90
33803;DHT22;20110;53.120;5.786;2022-12-18T15:34:18;-3.40;99.90
33803;DHT22;20110;53.120;5.786;2022-12-18T15:36:46;-3.40;99.90
33803;DHT22;20110;53.120;5.786;2022-12-18T15:39:12;-3.40;99.90
33803;DHT22;20110;53.120;5.786;2022-12-18T15:41:38;-3.40;99.90
33803;DHT22;20110;53.120;5.786;2022-12-18T15:44:22;-3.20;99.90
33803;DHT22;20110;53.120;5.786;2022-12-18T15:46:50;-3.40;99.90
33803;DHT22;20110;53.120;5.786;2022-12-18T15:49:16;-3.40;99.90
33803;DHT22;20110;53.120;5.786;2022-12-18T15:51:42;-3.10;99.90
33803;DHT22;20110;53.120;5.786;2022-12-18T15:54:13;-2.80;99.90
33803;DHT22;20110;53.120;5.786;2022-12-18T15:56:41;-2.80;99.90
33803;DHT22;20110;53.120;5.786;2022-12-18T15:59:26;-2.70;99.90
33803;DHT22;20110;53.120;5.786;2022-12-18T16:01:52;-2.60;99.90
33803;DHT22;20110;53.120;5.786;2022-12-18T16:04:20;-2.60;99.90
33803;DHT22;20110;53.120;5.786;2022-12-18T16:06:47;-2.70;99.90
33803;DHT22;20110;53.120;5.786;2022-12-18T16:09:14;-2.70;99.90
33803;DHT22;20110;53.120;5.786;2022-12-18T16:11:41;-2.60;99.90
33803;DHT22;20110;53.120;5.786;2022-12-18T16:14:15;-2.60;99.90
33803;DHT22;20110;53.120;5.786;2022-12-18T16:16:51;-2.70;99.90
33803;DHT22;20110;53.120;5.786;2022-12-18T16:19:18;-2.60;99.90
33803;DHT22;20110;53.120;5.786;2022-12-18T16:21:47;-2.60;99.90
33803;DHT22;20110;53.120;5.786;2022-12-18T16:24:18;-2.50;99.90
33803;DHT22;20110;53.120;5.786;2022-12-18T16:26:48;-2.50;99.90
33803;DHT22;20110;53.120;5.786;2022-12-18T16:29:17;-2.50;99.90
33803;DHT22;20110;53.120;5.786;2022-12-18T16:31:43;-2.50;99.90
33803;DHT22;20110;53.120;5.786;2022-12-18T16:34:21;-2.40;99.90
33803;DHT22;20110;53.120;5.786;2022-12-18T16:36:57;-2.30;99.90
33803;DHT22;20110;53.120;5.786;2022-12-18T16:39:32;-2.30;99.90
33803;DHT22;20110;53.120;5.786;2022-12-18T16:42:13;-2.30;99.90
33803;DHT22;20110;53.120;5.786;2022-12-18T16:44:45;-2.30;99.90
33803;DHT22;20110;53.120;5.786;2022-12-18T16:47:12;-2.30;99.90
33803;DHT22;20110;53.120;5.786;2022-12-18T16:49:39;-2.20;99.90
33803;DHT22;20110;53.120;5.786;2022-12-18T16:52:05;-2.10;99.90
33803;DHT22;20110;53.120;5.786;2022-12-18T16:54:31;-2.20;99.90
33803;DHT22;20110;53.120;5.786;2022-12-18T16:56:59;-2.20;99.90
33803;DHT22;20110;53.120;5.786;2022-12-18T16:59:26;-2.20;99.90
33803;DHT22;20110;53.120;5.786;2022-12-18T17:01:52;-2.10;99.90
33803;DHT22;20110;53.120;5.786;2022-12-18T17:04:20;-2.10;99.90
33803;DHT22;20110;53.120;5.786;2022-12-18T17:06:46;-2.10;99.90
33803;DHT22;20110;53.120;5.786;2022-12-18T17:09:17;-2.20;99.90
33803;DHT22;20110;53.120;5.786;2022-12-18T17:11:51;-2.10;99.90
33803;DHT22;20110;53.120;5.786;2022-12-18T17:14:20;-2.10;99.90
33803;DHT22;20110;53.120;5.786;2022-12-18T17:16:47;-2.10;99.90
33803;DHT22;20110;53.120;5.786;2022-12-18T17:19:13;-2.20;99.90
33803;DHT22;20110;53.120;5.786;2022-12-18T17:21:41;-2.10;99.90
33803;DHT22;20110;53.120;5.786;2022-12-18T17:24:08;-2.20;99.90
33803;DHT22;20110;53.120;5.786;2022-12-18T17:26:35;-2.20;99.90
33803;DHT22;20110;53.120;5.786;2022-12-18T17:29:01;-2.20;99.90
33803;DHT22;20110;53.120;5.786;2022-12-18T17:31:29;-2.10;99.90
33803;DHT22;20110;53.120;5.786;2022-12-18T17:33:56;-2.10;99.90
33803;DHT22;20110;53.120;5.786;2022-12-18T17:36:22;-2.10;99.90
33803;DHT22;20110;53.120;5.786;2022-12-18T17:38:53;-2.10;99.90
33803;DHT22;20110;53.120;5.786;2022-12-18T17:41:21;-2.00;99.90
33803;DHT22;20110;53.120;5.786;2022-12-18T17:43:59;-1.90;99.90
33803;DHT22;20110;53.120;5.786;2022-12-18T17:46:28;-1.90;99.90
33803;DHT22;20110;53.120;5.786;2022-12-18T17:48:56;-2.00;99.90
33803;DHT22;20110;53.120;5.786;2022-12-18T17:51:23;-2.00;99.90
33803;DHT22;20110;53.120;5.786;2022-12-18T17:53:49;-2.00;99.90
33803;DHT22;20110;53.120;5.786;2022-12-18T17:56:17;-2.00;99.90
33803;DHT22;20110;53.120;5.786;2022-12-18T17:58:45;-1.90;99.90
33803;DHT22;20110;53.120;5.786;2022-12-18T18:01:18;-1.80;99.90